Time;durP1;ratioP1;P1;durP2;ratioP2;P2;SDS_P1;SDS_P2;PMS_P1;PMS_P2;Temp;Humidity;BMP_temperature;BMP_pressure;BME280_temperature;BME280_humidity;BME280_pressure;Samples;Min_cycle;Max_cycle;Signal;HPM_P1;HPM_P2
2022/03/21 00:01:57;;;;;;;72.97;65.05;;;5.30;99.90;;;;;;5069113;28;20138;-69
2022/03/21 00:04:24;;;;;;;73.10;65.18;;;5.30;99.90;;;;;;5085820;28;20113;-69
2022/03/21 00:06:50;;;;;;;74.47;66.60;;;5.30;99.90;;;;;;5119348;27;20042;-69
2022/03/21 00:09:16;;;;;;;72.10;64.32;;;5.30;99.90;;;;;;5068167;28;20066;-69
2022/03/21 00:11:42;;;;;;;76.13;67.88;;;5.30;99.90;;;;;;5085588;28;20081;-69
2022/03/21 00:14:10;;;;;;;70.45;62.72;;;5.40;99.90;;;;;;5084940;28;20062;-69
2022/03/21 00:16:37;;;;;;;76.20;67.85;;;5.40;99.90;;;;;;5083906;28;20051;-68
2022/03/21 00:19:03;;;;;;;75.93;67.82;;;5.40;99.90;;;;;;5051364;28;20043;-69
2022/03/21 00:21:29;;;;;;;73.60;65.57;;;5.40;99.90;;;;;;5084723;28;20042;-69
2022/03/21 00:23:58;;;;;;;76.72;68.05;;;5.40;99.90;;;;;;5084842;28;20070;-69
2022/03/21 00:26:24;;;;;;;71.05;63.03;;;5.40;99.90;;;;;;5077825;28;20058;-69
2022/03/21 00:28:50;;;;;;;74.55;64.38;;;5.40;99.90;;;;;;5084615;28;20486;-69
2022/03/21 00:31:16;;;;;;;73.88;65.75;;;5.50;99.90;;;;;;5084151;28;20557;-69
2022/03/21 00:33:42;;;;;;;73.78;64.75;;;5.50;99.90;;;;;;5078525;28;20065;-69
2022/03/21 00:36:08;;;;;;;75.72;67.60;;;5.50;99.90;;;;;;5084318;28;20052;-68
2022/03/21 00:38:37;;;;;;;72.28;64.05;;;5.60;99.90;;;;;;5084854;28;20089;-69
2022/03/21 00:41:05;;;;;;;72.70;64.80;;;5.60;99.90;;;;;;5067779;28;20139;-68
2022/03/21 00:43:31;;;;;;;72.70;64.72;;;5.60;99.90;;;;;;5084483;28;20051;-68
2022/03/21 00:45:57;;;;;;;73.30;65.40;;;5.60;99.90;;;;;;5071698;28;20040;-69
2022/03/21 00:48:25;;;;;;;72.38;62.85;;;5.60;99.90;;;;;;5084200;28;20122;-68
2022/03/21 00:50:52;;;;;;;69.28;61.33;;;5.60;99.90;;;;;;5084713;28;20036;-69
2022/03/21 00:53:18;;;;;;;69.35;60.28;;;5.50;99.90;;;;;;5082585;28;20545;-69
2022/03/21 00:55:45;;;;;;;71.07;62.95;;;5.50;99.90;;;;;;5084525;28;20131;-69
2022/03/21 00:58:11;;;;;;;69.07;61.60;;;5.50;99.90;;;;;;5083611;28;20545;-69
2022/03/21 01:00:37;;;;;;;72.00;62.63;;;5.50;99.90;;;;;;5083328;28;20035;-69
2022/03/21 01:03:03;;;;;;;66.28;59.08;;;5.50;99.90;;;;;;5084621;28;20547;-69
2022/03/21 01:05:29;;;;;;;67.03;59.72;;;5.50;99.90;;;;;;5082249;28;20044;-69
2022/03/21 01:07:58;;;;;;;69.78;61.88;;;5.50;99.90;;;;;;5067832;28;20043;-69
2022/03/21 01:10:26;;;;;;;70.45;62.75;;;5.50;99.90;;;;;;5083968;28;20027;-69
2022/03/21 01:12:52;;;;;;;72.55;63.42;;;5.40;99.90;;;;;;5051071;28;20057;-69
2022/03/21 01:15:20;;;;;;;69.20;59.85;;;5.40;99.90;;;;;;5059165;28;20060;-69
2022/03/21 01:17:47;;;;;;;66.80;58.85;;;5.40;99.90;;;;;;5044360;28;20067;-69
2022/03/21 01:20:16;;;;;;;66.00;58.75;;;5.40;99.90;;;;;;5059968;28;20503;-69
2022/03/21 01:22:42;;;;;;;70.57;58.17;;;5.40;99.90;;;;;;5060692;28;20491;-69
2022/03/21 01:25:10;;;;;;;61.75;54.92;;;5.50;99.90;;;;;;5060440;28;20057;-69
2022/03/21 01:27:36;;;;;;;61.85;55.03;;;5.50;99.90;;;;;;5043882;28;20051;-69
2022/03/21 01:30:08;;;;;;;60.28;53.00;;;5.50;99.90;;;;;;5060784;28;20132;-69
2022/03/21 01:32:34;;;;;;;61.38;52.35;;;5.50;99.90;;;;;;5043855;28;20044;-69
2022/03/21 01:35:01;;;;;;;57.55;51.25;;;5.50;99.90;;;;;;5060437;28;20112;-69
2022/03/21 01:37:27;;;;;;;56.58;48.55;;;5.50;99.90;;;;;;5062249;28;20060;-69
2022/03/21 01:39:52;;;;;;;52.55;46.25;;;5.50;99.90;;;;;;5031338;28;20445;-69
2022/03/21 01:42:18;;;;;;;53.15;44.45;;;5.50;99.90;;;;;;5047310;28;20032;-69
2022/03/21 01:44:44;;;;;;;49.90;43.67;;;5.50;99.90;;;;;;5032069;28;20071;-69
2022/03/21 01:47:10;;;;;;;48.35;43.15;;;5.40;99.90;;;;;;5063730;28;20123;-69
2022/03/21 01:49:36;;;;;;;48.67;42.13;;;5.40;99.90;;;;;;5062316;28;20111;-69
2022/03/21 01:52:03;;;;;;;44.00;38.63;;;5.30;99.90;;;;;;5046682;28;20052;-69
2022/03/21 01:57:14;;;;;;;48.85;40.92;;;5.30;99.90;;;;;;5063217;28;21544;-70
2022/03/21 01:59:41;;;;;;;43.00;36.83;;;5.20;99.90;;;;;;5061334;28;20778;-69
2022/03/21 02:02:07;;;;;;;42.08;37.47;;;5.30;99.90;;;;;;5063056;28;20080;-69
2022/03/21 02:04:33;;;;;;;44.45;37.38;;;5.30;99.90;;;;;;5062138;28;20044;-68
2022/03/21 02:06:59;;;;;;;50.92;41.58;;;5.20;99.90;;;;;;5031107;28;20407;-68
2022/03/21 02:09:27;;;;;;;44.72;39.10;;;5.20;99.90;;;;;;5046657;28;20087;-68
2022/03/21 02:11:54;;;;;;;46.42;40.00;;;5.10;99.90;;;;;;5063648;28;20502;-69
2022/03/21 02:14:21;;;;;;;46.95;39.67;;;5.00;99.90;;;;;;5056469;28;20048;-69
2022/03/21 02:16:46;;;;;;;42.58;37.92;;;5.00;99.90;;;;;;5065888;28;20071;-69
2022/03/21 02:19:15;;;;;;;44.13;37.77;;;4.90;99.90;;;;;;5079341;28;20816;-69
2022/03/21 02:22:18;;;;;;;50.35;42.70;;;4.90;99.90;;;;;;5066494;28;20231;-69
2022/03/21 02:25:20;;;;;;;49.03;43.70;;;4.80;99.90;;;;;;5083122;28;20087;-69
2022/03/21 02:27:48;;;;;;;48.80;40.67;;;4.60;99.90;;;;;;5048052;28;20302;-69
2022/03/21 02:30:14;;;;;;;46.27;39.30;;;4.40;99.90;;;;;;5082630;28;20052;-69
2022/03/21 02:32:42;;;;;;;47.43;41.00;;;4.40;99.90;;;;;;5081525;28;20625;-69
2022/03/21 02:35:09;;;;;;;48.70;38.50;;;4.40;99.90;;;;;;5066554;28;20044;-69
2022/03/21 02:37:36;;;;;;;45.35;36.80;;;4.40;99.90;;;;;;5066454;28;20048;-69
2022/03/21 02:40:02;;;;;;;42.25;35.95;;;4.30;99.90;;;;;;5064479;28;20083;-69
2022/03/21 02:42:28;;;;;;;37.33;32.07;;;4.30;99.90;;;;;;5082605;28;20111;-69
2022/03/21 02:44:54;;;;;;;41.20;35.13;;;4.30;99.90;;;;;;5066668;28;20052;-69
2022/03/21 02:47:20;;;;;;;43.67;35.70;;;4.30;99.90;;;;;;5076637;28;20055;-69
2022/03/21 02:49:46;;;;;;;45.33;36.73;;;4.30;99.90;;;;;;5060235;28;20126;-69
2022/03/21 02:52:14;;;;;;;41.03;34.60;;;4.30;99.90;;;;;;5064819;28;20189;-69
2022/03/21 02:54:40;;;;;;;36.53;32.00;;;4.30;99.90;;;;;;5081244;28;20123;-69
2022/03/21 02:57:05;;;;;;;37.55;30.70;;;4.20;99.90;;;;;;5046930;28;20123;-69
2022/03/21 02:59:31;;;;;;;41.73;34.40;;;4.20;99.90;;;;;;5047674;28;20398;-69
2022/03/21 03:01:57;;;;;;;34.55;29.80;;;4.20;99.90;;;;;;5082503;28;20067;-69
2022/03/21 03:04:24;;;;;;;35.23;29.63;;;4.20;99.90;;;;;;5084089;28;20555;-69
2022/03/21 03:06:50;;;;;;;36.50;29.63;;;4.10;99.90;;;;;;5065224;28;20048;-69
2022/03/21 03:09:16;;;;;;;35.43;29.90;;;4.00;99.90;;;;;;5066442;28;20121;-69
2022/03/21 03:11:42;;;;;;;38.73;32.57;;;4.00;99.90;;;;;;5083736;28;20440;-69
2022/03/21 03:14:08;;;;;;;40.13;31.10;;;4.00;99.90;;;;;;5059733;28;20063;-69
2022/03/21 03:16:34;;;;;;;32.57;28.73;;;3.90;99.90;;;;;;5066503;28;20079;-69
2022/03/21 03:19:00;;;;;;;33.43;28.90;;;3.90;99.90;;;;;;5067473;28;20048;-69
2022/03/21 03:21:30;;;;;;;38.17;30.60;;;3.80;99.90;;;;;;5082706;28;20044;-70
2022/03/21 03:23:59;;;;;;;36.03;31.83;;;3.80;99.90;;;;;;5079246;28;20486;-69
2022/03/21 03:26:24;;;;;;;38.00;30.37;;;3.80;99.90;;;;;;5084361;28;20055;-69
2022/03/21 03:28:50;;;;;;;41.60;31.07;;;3.60;99.90;;;;;;5084026;28;20104;-69
2022/03/21 03:31:17;;;;;;;37.43;31.57;;;3.70;99.90;;;;;;5084347;28;20052;-69
2022/03/21 03:33:45;;;;;;;40.57;32.80;;;3.70;99.90;;;;;;5050598;28;20127;-69
2022/03/21 03:36:11;;;;;;;37.00;29.87;;;3.60;99.90;;;;;;5083915;28;20108;-70
2022/03/21 03:38:37;;;;;;;40.03;32.10;;;3.60;99.90;;;;;;5066609;28;20853;-69
2022/03/21 03:41:03;;;;;;;33.80;27.47;;;3.50;99.90;;;;;;5067244;28;20113;-69
2022/03/21 03:43:29;;;;;;;34.23;29.57;;;3.50;99.90;;;;;;5050790;28;20044;-69
2022/03/21 03:45:59;;;;;;;30.80;27.20;;;3.50;99.90;;;;;;5084010;28;20134;-69
2022/03/21 03:48:28;;;;;;;30.30;26.77;;;3.50;99.90;;;;;;5062876;28;20056;-69
2022/03/21 03:50:54;;;;;;;31.93;27.80;;;3.40;99.90;;;;;;5047186;28;20411;-69
2022/03/21 03:53:21;;;;;;;35.37;28.07;;;3.40;99.90;;;;;;5076206;28;20305;-69
2022/03/21 03:55:46;;;;;;;33.00;27.43;;;3.30;99.90;;;;;;5065368;28;20108;-69
2022/03/21 03:58:13;;;;;;;34.87;29.47;;;3.30;99.90;;;;;;5082868;28;20048;-69
2022/03/21 04:00:39;;;;;;;35.53;30.10;;;3.20;99.90;;;;;;5062894;28;20079;-69
2022/03/21 04:05:49;;;;;;;37.53;30.73;;;3.20;99.90;;;;;;5082033;28;20126;-69
2022/03/21 04:08:15;;;;;;;36.60;30.47;;;3.30;99.90;;;;;;5065928;28;20105;-69
2022/03/21 04:10:41;;;;;;;35.73;28.13;;;3.30;99.90;;;;;;5066315;28;20056;-69
2022/03/21 04:13:07;;;;;;;40.03;29.73;;;3.30;99.90;;;;;;5066292;28;20700;-69
2022/03/21 04:15:33;;;;;;;35.63;29.87;;;3.20;99.90;;;;;;5082593;28;20048;-69
2022/03/21 04:18:04;;;;;;;36.20;28.93;;;3.20;99.90;;;;;;5065987;28;20050;-69
2022/03/21 04:20:31;;;;;;;43.07;33.07;;;3.20;99.90;;;;;;5082763;28;20126;-69
2022/03/21 04:23:00;;;;;;;41.17;33.03;;;3.30;99.90;;;;;;5082532;28;20047;-69
2022/03/21 04:25:27;;;;;;;44.43;33.07;;;3.30;99.90;;;;;;5064980;28;20044;-69
2022/03/21 04:27:53;;;;;;;41.63;33.50;;;3.30;99.90;;;;;;5049162;28;20115;-69
2022/03/21 04:30:19;;;;;;;43.10;33.50;;;3.40;99.90;;;;;;5065364;28;20163;-69
2022/03/21 04:32:45;;;;;;;44.83;32.90;;;3.40;99.90;;;;;;5082542;28;20048;-69
2022/03/21 04:35:11;;;;;;;43.60;33.67;;;3.40;99.90;;;;;;5082636;28;20055;-70
2022/03/21 04:37:37;;;;;;;39.00;31.00;;;3.40;99.90;;;;;;5082624;28;20055;-70
2022/03/21 04:40:05;;;;;;;41.37;33.70;;;3.40;99.90;;;;;;5065996;28;20059;-70
2022/03/21 04:42:31;;;;;;;42.43;33.63;;;3.50;99.90;;;;;;5048851;28;20438;-70
2022/03/21 04:44:57;;;;;;;40.80;33.27;;;3.50;99.90;;;;;;5065618;28;20082;-71
2022/03/21 04:47:23;;;;;;;40.30;32.43;;;3.50;99.90;;;;;;5065871;28;20051;-70
2022/03/21 04:49:49;;;;;;;44.40;34.70;;;3.50;99.90;;;;;;5064353;28;20044;-70
2022/03/21 04:52:15;;;;;;;38.63;31.60;;;3.50;99.90;;;;;;5064311;28;20047;-70
2022/03/21 04:54:42;;;;;;;41.93;33.53;;;3.60;99.90;;;;;;5081246;28;20583;-70
2022/03/21 04:57:08;;;;;;;41.03;33.10;;;3.60;99.90;;;;;;5082557;28;20047;-70
2022/03/21 04:59:35;;;;;;;44.73;35.43;;;3.60;99.90;;;;;;5082763;28;20475;-70
2022/03/21 05:02:01;;;;;;;44.10;34.33;;;3.60;99.90;;;;;;5079853;28;20110;-70
2022/03/21 05:04:27;;;;;;;40.37;34.07;;;3.70;99.90;;;;;;5064071;28;20753;-70
2022/03/21 05:06:55;;;;;;;40.07;34.30;;;3.70;99.90;;;;;;5065779;28;20051;-70
2022/03/21 05:09:21;;;;;;;41.17;33.50;;;3.70;99.90;;;;;;5083130;28;20131;-70
2022/03/21 05:11:47;;;;;;;41.20;32.70;;;3.80;99.90;;;;;;5066718;28;20138;-70
2022/03/21 05:14:12;;;;;;;42.83;34.00;;;3.80;99.90;;;;;;5069817;28;20052;-70
2022/03/21 05:16:38;;;;;;;47.73;35.77;;;3.70;99.90;;;;;;5087301;28;20060;-70
2022/03/21 05:19:04;;;;;;;42.40;32.87;;;3.70;99.90;;;;;;5086366;28;20105;-70
2022/03/21 05:21:30;;;;;;;45.77;32.90;;;3.60;99.90;;;;;;5086372;28;20658;-70
2022/03/21 05:32:09;;;;;;;43.00;31.80;;;3.30;99.90;;;;;;5071701;28;20109;-69
2022/03/21 05:37:18;;;;;;;41.03;33.00;;;3.20;99.90;;;;;;5070048;28;20494;-69
2022/03/21 05:42:28;;;;;;;37.83;29.40;;;3.10;99.90;;;;;;5071048;28;20052;-69
2022/03/21 05:44:54;;;;;;;42.07;34.07;;;2.90;99.90;;;;;;5085501;28;20054;-69
2022/03/21 05:47:20;;;;;;;40.50;32.90;;;3.00;99.90;;;;;;5085443;28;20482;-73
2022/03/21 05:49:46;;;;;;;40.63;32.27;;;3.00;99.90;;;;;;5068765;28;20043;-69
2022/03/21 05:52:12;;;;;;;34.30;26.87;;;2.90;99.90;;;;;;5067232;28;20040;-74
2022/03/21 05:54:37;;;;;;;37.17;29.77;;;2.80;99.90;;;;;;5084146;28;20043;-73
2022/03/21 05:57:04;;;;;;;35.50;29.57;;;2.90;99.90;;;;;;5068568;28;20055;-73
2022/03/21 06:02:14;;;;;;;37.33;29.77;;;3.10;99.90;;;;;;5084434;28;20127;-73
2022/03/21 06:04:40;;;;;;;38.87;31.03;;;3.10;99.90;;;;;;5049618;28;20058;-69
2022/03/21 06:07:06;;;;;;;39.40;29.97;;;3.30;99.90;;;;;;5067187;28;20048;-69
2022/03/21 06:09:32;;;;;;;34.13;29.63;;;3.40;99.90;;;;;;5083605;28;20036;-68
2022/03/21 06:11:58;;;;;;;33.63;28.33;;;3.40;99.90;;;;;;5050051;28;20043;-69
2022/03/21 06:14:24;;;;;;;32.50;26.90;;;3.40;99.90;;;;;;5083178;28;20067;-69
2022/03/21 06:16:49;;;;;;;34.90;29.27;;;3.40;99.90;;;;;;5065676;28;20048;-69
2022/03/21 06:19:15;;;;;;;36.67;29.90;;;3.40;99.90;;;;;;5066711;28;20559;-69
2022/03/21 06:21:41;;;;;;;32.07;28.17;;;3.30;99.90;;;;;;5082565;28;20494;-69
2022/03/21 06:24:08;;;;;;;37.67;30.40;;;3.20;99.90;;;;;;5049447;28;20043;-69
2022/03/21 06:26:34;;;;;;;35.43;29.43;;;3.20;99.90;;;;;;5082014;28;20052;-69
2022/03/21 06:28:59;;;;;;;35.63;30.40;;;3.30;99.90;;;;;;5066210;28;20048;-69
2022/03/21 06:31:28;;;;;;;32.50;29.00;;;3.30;99.90;;;;;;5065852;28;20055;-70
2022/03/21 06:33:54;;;;;;;34.80;29.87;;;3.30;99.90;;;;;;5046861;28;20510;-69
2022/03/21 06:36:20;;;;;;;36.03;30.17;;;3.30;99.90;;;;;;5065954;28;20055;-70
2022/03/21 06:38:46;;;;;;;33.50;29.67;;;3.40;99.90;;;;;;5083568;28;20040;-70
2022/03/21 06:41:11;;;;;;;34.83;29.17;;;3.50;99.90;;;;;;5082610;28;20724;-70
2022/03/21 06:43:37;;;;;;;35.47;30.77;;;3.60;99.90;;;;;;5081664;28;20067;-70
2022/03/21 06:46:05;;;;;;;38.20;32.23;;;3.70;99.90;;;;;;5064015;28;20445;-70
2022/03/21 06:48:30;;;;;;;39.80;34.57;;;3.80;99.90;;;;;;5045519;28;20044;-70
2022/03/21 06:50:59;;;;;;;33.70;29.83;;;3.90;99.90;;;;;;5080388;28;20047;-70
2022/03/21 06:53:28;;;;;;;34.23;29.77;;;4.00;99.90;;;;;;5077821;28;20043;-70
2022/03/21 06:55:54;;;;;;;36.77;30.50;;;4.10;99.90;;;;;;5058852;28;20044;-69
2022/03/21 06:58:20;;;;;;;33.30;29.23;;;4.20;99.90;;;;;;5077271;28;20048;-69
2022/03/21 07:00:47;;;;;;;34.67;28.97;;;4.30;99.90;;;;;;5056291;28;20222;-69
2022/03/21 07:03:15;;;;;;;34.23;29.90;;;4.30;99.90;;;;;;5062862;28;20267;-69
2022/03/21 07:05:41;;;;;;;34.20;30.30;;;4.40;99.90;;;;;;5064665;28;20112;-69
2022/03/21 07:08:07;;;;;;;35.70;29.60;;;4.60;99.90;;;;;;5074173;28;20036;-71
2022/03/21 07:10:40;;;;;;;33.93;28.80;;;4.80;99.90;;;;;;5075582;28;20040;-71
2022/03/21 07:13:06;;;;;;;35.70;28.13;;;4.80;99.90;;;;;;5074523;28;20118;-69
2022/03/21 07:15:32;;;;;;;35.53;30.15;;;5.10;99.90;;;;;;5078510;28;20436;-68
2022/03/21 07:17:58;;;;;;;32.72;29.17;;;5.20;99.90;;;;;;5064295;28;20162;-69
2022/03/21 07:20:27;;;;;;;35.05;30.83;;;5.30;99.90;;;;;;5064623;28;20372;-69
2022/03/21 07:22:54;;;;;;;35.63;30.08;;;5.50;99.90;;;;;;5064540;28;20046;-69
2022/03/21 07:25:20;;;;;;;35.78;29.90;;;5.60;99.90;;;;;;5080386;28;20557;-69
2022/03/21 07:27:46;;;;;;;30.95;27.65;;;5.70;99.90;;;;;;5064270;28;20040;-69
2022/03/21 07:30:16;;;;;;;31.08;26.38;;;6.00;99.90;;;;;;5064794;28;20430;-69
2022/03/21 07:32:43;;;;;;;32.53;27.85;;;6.10;99.90;;;;;;5055259;28;20043;-70
2022/03/21 07:35:10;;;;;;;33.15;27.13;;;6.30;99.90;;;;;;5076296;28;20447;-70
2022/03/21 07:37:56;;;;;;;29.23;25.98;;;6.40;99.90;;;;;;5045719;28;20051;-70
2022/03/21 07:40:22;;;;;;;28.98;25.33;;;6.60;99.90;;;;;;5062607;28;20059;-70
2022/03/21 07:42:49;;;;;;;28.83;24.80;;;6.70;99.90;;;;;;5058736;28;20047;-70
2022/03/21 07:48:00;;;;;;;27.98;23.45;;;7.10;99.90;;;;;;5080768;28;20048;-70
2022/03/21 07:50:29;;;;;;;30.05;24.45;;;7.30;99.90;;;;;;5078582;28;20043;-70
2022/03/21 07:52:57;;;;;;;28.73;23.77;;;7.40;99.90;;;;;;5062476;28;20131;-70
2022/03/21 07:55:23;;;;;;;27.33;23.05;;;7.50;99.90;;;;;;5063328;28;20047;-70
2022/03/21 07:57:49;;;;;;;26.92;23.15;;;7.60;99.90;;;;;;5079101;28;20127;-70
2022/03/21 08:00:16;;;;;;;24.20;21.70;;;7.70;99.90;;;;;;5064564;28;20130;-70
2022/03/21 08:02:43;;;;;;;30.00;25.13;;;7.90;99.90;;;;;;5079086;28;20046;-70
2022/03/21 08:05:09;;;;;;;28.20;23.45;;;8.00;99.90;;;;;;5060186;28;20041;-70
2022/03/21 08:07:36;;;;;;;27.95;22.63;;;8.10;99.90;;;;;;5055278;28;20055;-69
2022/03/21 08:10:06;;;;;;;25.45;22.17;;;8.30;99.90;;;;;;5079120;28;20036;-69
2022/03/21 08:12:32;;;;;;;25.85;21.77;;;8.50;99.90;;;;;;5081402;28;20039;-72
2022/03/21 08:14:59;;;;;;;28.02;22.65;;;8.70;99.90;;;;;;5079897;28;20406;-72
2022/03/21 08:17:28;;;;;;;28.92;22.00;;;8.90;99.90;;;;;;5057799;28;20457;-70
2022/03/21 08:19:54;;;;;;;26.85;22.20;;;9.10;99.90;;;;;;5078843;28;20174;-70
2022/03/21 08:22:20;;;;;;;27.80;23.52;;;9.20;99.90;;;;;;5080438;28;20550;-71
2022/03/21 08:24:46;;;;;;;31.73;22.85;;;9.30;99.90;;;;;;5079669;28;20032;-69
2022/03/21 08:27:12;;;;;;;28.25;22.30;;;9.40;99.90;;;;;;5064123;28;20372;-69
2022/03/21 08:29:39;;;;;;;31.20;22.98;;;9.60;99.90;;;;;;5062839;28;20047;-69
2022/03/21 08:32:06;;;;;;;33.38;23.77;;;9.80;99.90;;;;;;5079573;28;20036;-69
2022/03/21 08:34:32;;;;;;;26.95;23.17;;;9.90;99.90;;;;;;5060499;28;20076;-72
2022/03/21 08:36:58;;;;;;;28.38;22.92;;;10.00;99.90;;;;;;5060110;28;20391;-69
2022/03/21 08:39:24;;;;;;;27.33;22.25;;;10.10;99.90;;;;;;5075975;28;20052;-70
2022/03/21 08:41:50;;;;;;;30.08;21.15;;;10.20;99.90;;;;;;5054385;28;20047;-70
2022/03/21 08:44:19;;;;;;;26.30;20.55;;;10.40;99.90;;;;;;5056522;28;20086;-70
2022/03/21 08:46:46;;;;;;;25.27;21.13;;;10.40;99.90;;;;;;5058162;28;20811;-70
2022/03/21 08:49:24;;;;;;;27.00;21.67;;;10.50;99.90;;;;;;5084132;28;20051;-70
2022/03/21 08:51:50;;;;;;;25.23;21.15;;;10.70;99.90;;;;;;5066784;28;20576;-70
2022/03/21 08:54:16;;;;;;;23.27;19.85;;;10.80;99.90;;;;;;5083083;28;20036;-70
2022/03/21 08:56:42;;;;;;;21.98;18.77;;;10.90;99.90;;;;;;5084761;28;20036;-71
2022/03/21 08:59:09;;;;;;;26.67;19.77;;;10.80;99.90;;;;;;5065540;28;20067;-70
2022/03/21 09:01:35;;;;;;;25.92;20.50;;;10.90;99.90;;;;;;5064722;28;20456;-70
2022/03/21 09:04:04;;;;;;;28.23;19.88;;;11.10;99.90;;;;;;5064492;28;20071;-70
2022/03/21 09:06:30;;;;;;;26.00;20.30;;;11.20;99.90;;;;;;5080825;28;20060;-71
2022/03/21 09:08:56;;;;;;;26.30;19.23;;;11.20;99.90;;;;;;5064231;28;20094;-70
2022/03/21 09:11:22;;;;;;;26.13;20.30;;;11.30;99.90;;;;;;5060331;28;20052;-70
2022/03/21 09:13:49;;;;;;;24.38;18.63;;;11.40;99.90;;;;;;5067184;28;20038;-70
2022/03/21 09:16:15;;;;;;;24.48;19.05;;;11.60;99.90;;;;;;5083375;28;20332;-69
2022/03/21 09:18:42;;;;;;;30.00;19.88;;;11.70;99.90;;;;;;5067156;28;20148;-69
2022/03/21 09:21:08;;;;;;;22.15;19.13;;;11.90;99.90;;;;;;5085866;28;20054;-68
2022/03/21 09:23:34;;;;;;;21.73;18.48;;;12.00;99.90;;;;;;5081716;28;20110;-69
2022/03/21 09:26:02;;;;;;;24.10;18.92;;;12.10;99.90;;;;;;5040728;28;20044;-70
2022/03/21 09:28:29;;;;;;;23.25;19.38;;;12.20;99.90;;;;;;5080267;28;20130;-69
2022/03/21 09:30:55;;;;;;;30.23;20.13;;;12.30;99.90;;;;;;5063460;28;20035;-69
2022/03/21 09:33:21;;;;;;;23.60;19.83;;;12.40;99.90;;;;;;5059221;28;20035;-70
2022/03/21 09:35:47;;;;;;;25.60;19.40;;;12.40;99.90;;;;;;5083237;28;20036;-70
2022/03/21 09:38:14;;;;;;;25.95;19.40;;;12.50;99.90;;;;;;5078727;28;20051;-70
2022/03/21 09:40:44;;;;;;;25.15;20.25;;;12.60;99.90;;;;;;5080502;28;20106;-71
2022/03/21 09:43:11;;;;;;;25.73;20.45;;;12.70;99.90;;;;;;5083578;28;20098;-70
2022/03/21 09:45:38;;;;;;;25.17;18.70;;;12.80;99.90;;;;;;5066451;28;20496;-70
2022/03/21 09:48:12;;;;;;;26.98;20.92;;;12.80;99.90;;;;;;5069121;28;20043;-70
2022/03/21 09:50:44;;;;;;;25.52;21.10;;;12.70;99.90;;;;;;5086980;28;20138;-70
2022/03/21 09:53:11;;;;;;;25.27;21.30;;;12.70;99.90;;;;;;5082238;28;20044;-70
2022/03/21 09:55:39;;;;;;;22.63;19.05;;;12.80;99.90;;;;;;5084702;28;20098;-70
2022/03/21 09:58:05;;;;;;;24.50;20.48;;;13.00;99.90;;;;;;5077517;28;20047;-70
2022/03/21 10:00:32;;;;;;;27.20;19.88;;;13.10;99.90;;;;;;5063381;28;20040;-70
2022/03/21 10:02:58;;;;;;;27.10;21.50;;;13.20;99.90;;;;;;5069190;28;20105;-71
2022/03/21 10:05:35;;;;;;;27.50;21.88;;;13.20;99.20;;;;;;5067994;28;20043;-70
2022/03/21 10:08:28;;;;;;;31.10;21.33;;;13.20;99.20;;;;;;5068004;28;20039;-70
2022/03/21 10:11:02;;;;;;;28.40;21.55;;;13.20;99.30;;;;;;5080277;28;20039;-70
2022/03/21 10:13:41;;;;;;;27.55;21.60;;;13.10;97.30;;;;;;5076680;28;20093;-70
2022/03/21 10:16:18;;;;;;;26.88;21.10;;;13.10;98.40;;;;;;5079585;28;20128;-70
2022/03/21 10:18:53;;;;;;;30.52;22.02;;;13.10;99.10;;;;;;5065618;28;20319;-70
2022/03/21 10:21:20;;;;;;;27.73;21.92;;;13.10;97.90;;;;;;5077009;28;20043;-70
2022/03/21 10:23:58;;;;;;;27.98;21.02;;;13.20;96.90;;;;;;5085512;28;20378;-71
2022/03/21 10:26:26;;;;;;;28.20;21.60;;;13.10;94.70;;;;;;5068447;28;20047;-71
2022/03/21 10:29:01;;;;;;;27.25;21.55;;;13.10;96.30;;;;;;5082950;28;20279;-70
2022/03/21 10:31:50;;;;;;;27.52;21.35;;;13.20;96.10;;;;;;5078467;28;20557;-70
2022/03/21 10:34:18;;;;;;;25.60;21.08;;;13.30;94.90;;;;;;5085756;28;20545;-70
2022/03/21 10:37:05;;;;;;;23.77;19.67;;;13.40;93.80;;;;;;5067485;28;20116;-70
2022/03/21 10:39:33;;;;;;;26.25;21.27;;;13.50;93.60;;;;;;5085206;28;20104;-70
2022/03/21 10:42:03;;;;;;;22.90;20.17;;;13.60;93.50;;;;;;5084207;28;20035;-70
2022/03/21 10:44:30;;;;;;;26.95;21.00;;;13.70;92.70;;;;;;5067215;28;20043;-71
2022/03/21 10:47:00;;;;;;;28.05;22.55;;;13.80;92.30;;;;;;5066535;28;20072;-69
2022/03/21 10:49:44;;;;;;;26.88;21.02;;;14.00;92.40;;;;;;5081539;28;20067;-69
2022/03/21 10:52:17;;;;;;;29.40;22.67;;;14.10;90.50;;;;;;5068102;28;20043;-69
2022/03/21 10:54:48;;;;;;;24.77;21.08;;;14.00;90.50;;;;;;5065738;28;20054;-69
2022/03/21 10:57:32;;;;;;;;;;;14.10;91.20;;;;;;5098479;28;20045;-70
2022/03/21 11:00:21;;;;;;;29.40;22.05;;;14.00;91.50;;;;;;5082196;28;20022;-70
2022/03/21 11:02:57;;;;;;;28.63;20.73;;;14.10;90.60;;;;;;5082887;28;20073;-69
2022/03/21 11:05:25;;;;;;;27.52;20.73;;;14.10;90.80;;;;;;5063761;28;20055;-70
2022/03/21 11:07:55;;;;;;;28.33;22.85;;;14.20;91.10;;;;;;5113537;27;20066;-70
2022/03/21 11:10:23;;;;;;;27.10;23.23;;;14.30;90.40;;;;;;5030560;28;20052;-70
2022/03/21 11:12:49;;;;;;;29.05;23.42;;;14.40;90.60;;;;;;5061206;28;20334;-70
2022/03/21 11:15:15;;;;;;;30.90;22.60;;;14.60;89.30;;;;;;5059374;28;20413;-70
2022/03/21 11:17:43;;;;;;;29.58;22.05;;;14.70;87.50;;;;;;5058514;28;20193;-70
2022/03/21 11:20:10;;;;;;;31.30;23.45;;;14.70;87.20;;;;;;5044278;28;20039;-69
2022/03/21 11:22:38;;;;;;;30.33;23.63;;;14.80;88.20;;;;;;5070923;28;20044;-69
2022/03/21 11:25:06;;;;;;;27.38;21.98;;;14.90;86.70;;;;;;5113793;27;20047;-69
2022/03/21 11:27:59;;;;;;;29.42;22.35;;;14.90;84.60;;;;;;5093367;28;20035;-69
2022/03/21 11:30:42;;;;;;;32.42;22.75;;;14.90;84.10;;;;;;5082974;28;20126;-69
2022/03/21 11:34:02;;;;;;;28.73;22.05;;;14.90;85.20;;;;;;5066900;28;20047;-69
2022/03/21 11:36:31;;;;;;;25.92;21.30;;;14.90;85.60;;;;;;4979202;28;20053;-69
2022/03/21 11:39:00;;;;;;;27.73;20.80;;;15.00;84.10;;;;;;5067191;28;20587;-69
2022/03/21 11:41:26;;;;;;;23.85;20.02;;;15.00;83.00;;;;;;5084797;28;20050;-70
2022/03/21 11:44:14;;;;;;;28.02;20.80;;;15.00;76.90;;;;;;5077745;28;20126;-70
2022/03/21 11:46:47;;;;;;;27.05;22.23;;;15.10;75.90;;;;;;5091248;28;20529;-70
2022/03/21 11:49:19;;;;;;;26.75;22.27;;;15.10;77.50;;;;;;5068066;28;20406;-70
2022/03/21 11:51:58;;;;;;;29.42;21.80;;;15.10;74.50;;;;;;5114339;27;20051;-71
2022/03/21 11:54:33;;;;;;;26.03;20.23;;;15.10;74.60;;;;;;5063669;28;20062;-69
2022/03/21 11:57:04;;;;;;;28.92;20.83;;;15.10;75.20;;;;;;5080030;28;20142;-70
2022/03/21 11:59:34;;;;;;;26.02;20.25;;;15.30;73.90;;;;;;5085785;28;20048;-70
2022/03/21 12:02:12;;;;;;;26.25;21.85;;;15.40;72.20;;;;;;5080058;28;20054;-71
2022/03/21 12:04:39;;;;;;;25.70;21.20;;;15.40;70.70;;;;;;5060936;28;20728;-71
2022/03/21 12:07:11;;;;;;;25.88;19.88;;;15.40;71.50;;;;;;5109971;27;20767;-71
2022/03/21 12:09:44;;;;;;;28.23;22.17;;;15.50;71.30;;;;;;5076316;28;20748;-70
2022/03/21 12:12:11;;;;;;;32.30;21.42;;;15.60;69.50;;;;;;5096384;28;20035;-71
2022/03/21 12:14:46;;;;;;;25.45;20.42;;;15.60;70.20;;;;;;5075454;28;20059;-71
2022/03/21 12:17:12;;;;;;;26.85;20.20;;;15.60;69.90;;;;;;5055599;28;20082;-71
2022/03/21 12:20:01;;;;;;;26.67;20.77;;;15.70;69.70;;;;;;5080673;28;20077;-71
2022/03/21 12:22:27;;;;;;;26.85;20.17;;;15.80;66.30;;;;;;5068554;28;20089;-71
2022/03/21 12:24:54;;;;;;;26.95;21.02;;;15.80;67.10;;;;;;5099897;28;20055;-71
2022/03/21 12:27:33;;;;;;;28.52;21.30;;;15.90;67.00;;;;;;5068700;28;20395;-71
2022/03/21 12:30:21;;;;;;;29.05;21.58;;;15.90;67.20;;;;;;5068679;28;20086;-70
2022/03/21 12:32:51;;;;;;;25.65;20.23;;;16.00;66.40;;;;;;5085047;28;20052;-71
2022/03/21 12:35:52;;;;;;;;;;;16.00;68.30;;;;;;5068789;28;20126;-71
2022/03/21 12:38:32;;;;;;;27.88;21.70;;;16.00;63.90;;;;;;5068642;28;19958;-71
2022/03/21 12:41:02;;;;;;;30.52;22.13;;;15.80;65.00;;;;;;5068991;28;20082;-71
2022/03/21 12:43:32;;;;;;;28.40;21.85;;;15.80;66.70;;;;;;5068891;28;20089;-71
2022/03/21 12:46:07;;;;;;;27.75;21.27;;;15.80;65.40;;;;;;5085444;28;20066;-70
2022/03/21 12:48:34;;;;;;;27.95;20.30;;;15.80;64.50;;;;;;5080125;28;20047;-70
2022/03/21 12:51:01;;;;;;;30.17;21.25;;;15.80;65.10;;;;;;5073993;28;20047;-70
2022/03/21 12:53:37;;;;;;;27.60;20.02;;;15.90;65.40;;;;;;5095945;28;20055;-69
2022/03/21 12:56:05;;;;;;;32.35;20.60;;;16.00;66.10;;;;;;5114226;28;20460;-70
2022/03/21 12:58:31;;;;;;;29.42;21.13;;;16.20;65.70;;;;;;5051749;28;20051;-70
2022/03/21 13:01:02;;;;;;;30.83;20.77;;;16.30;65.00;;;;;;5090384;28;20039;-70
2022/03/21 13:03:30;;;;;;;28.70;21.55;;;16.40;64.60;;;;;;5076459;28;20569;-75
2022/03/21 13:11:40;;;;;;;27.85;21.13;;;16.80;64.80;;;;;;5075488;28;20062;-76